Time;durP1;ratioP1;P1;durP2;ratioP2;P2;SDS_P1;SDS_P2;PMS_P1;PMS_P2;Temp;Humidity;BMP_temperature;BMP_pressure;BME280_temperature;BME280_humidity;BME280_pressure;Samples;Min_cycle;Max_cycle;Signal;HPM_P1;HPM_P2
2021/06/25 00:01:33;;;;;;;2.55;0.80;;;31.00;99.90;;;;;;5021813;28;20264;-90
2021/06/25 00:04:04;;;;;;;1.98;0.75;;;31.00;99.90;;;;;;5014732;28;20221;-89
2021/06/25 00:06:35;;;;;;;8.52;2.55;;;31.20;99.90;;;;;;5014749;28;20214;-89
2021/06/25 00:09:07;;;;;;;17.08;3.42;;;31.20;99.90;;;;;;5013808;28;20230;-90
2021/06/25 00:11:40;;;;;;;2.03;0.88;;;30.90;99.90;;;;;;5013865;28;20241;-90
2021/06/25 00:14:11;;;;;;;4.80;0.80;;;30.50;99.90;;;;;;5016418;28;20236;-90
2021/06/25 00:16:44;;;;;;;1.77;0.90;;;29.80;99.90;;;;;;5015164;28;20352;-91
2021/06/25 00:19:17;;;;;;;2.30;0.73;;;29.30;99.90;;;;;;5016627;28;20225;-91
2021/06/25 00:21:48;;;;;;;2.80;0.90;;;29.10;99.90;;;;;;5012837;28;20209;-90
2021/06/25 00:24:18;;;;;;;3.75;0.88;;;29.00;99.90;;;;;;5015693;28;20316;-90
2021/06/25 00:26:51;;;;;;;2.57;0.70;;;29.30;99.90;;;;;;5020556;28;20742;-90
2021/06/25 00:29:25;;;;;;;1.73;0.60;;;29.30;99.90;;;;;;5021699;28;20213;-90
2021/06/25 00:31:57;;;;;;;1.87;0.73;;;29.30;99.90;;;;;;5018316;28;20239;-89
2021/06/25 00:34:28;;;;;;;1.23;0.80;;;29.20;99.90;;;;;;5020188;28;20684;-90
2021/06/25 00:36:59;;;;;;;2.97;0.63;;;28.90;99.90;;;;;;5021656;28;20247;-90
2021/06/25 00:39:30;;;;;;;3.37;1.20;;;28.90;99.90;;;;;;5019909;28;20205;-89
2021/06/25 00:42:03;;;;;;;1.57;0.63;;;28.90;99.90;;;;;;5015107;28;20202;-88
2021/06/25 00:44:39;;;;;;;0.93;0.70;;;29.20;99.90;;;;;;5002380;28;20242;-89
2021/06/25 00:47:11;;;;;;;1.53;0.60;;;29.40;99.90;;;;;;5001083;28;20218;-89
2021/06/25 00:49:42;;;;;;;0.97;0.50;;;29.60;99.90;;;;;;5002007;28;20229;-89
2021/06/25 00:52:19;;;;;;;1.33;0.70;;;29.80;99.90;;;;;;5000141;28;20691;-87
2021/06/25 00:54:52;;;;;;;2.00;0.60;;;30.10;99.90;;;;;;5000656;28;20240;-87
2021/06/25 00:57:25;;;;;;;3.03;0.80;;;30.20;99.90;;;;;;5014680;28;20213;-87
2021/06/25 00:59:56;;;;;;;1.37;0.50;;;29.50;99.90;;;;;;5018655;28;20305;-92
2021/06/25 01:02:27;;;;;;;9.63;1.67;;;29.30;99.90;;;;;;5027079;28;20221;-89
2021/06/25 01:04:58;;;;;;;2.57;0.63;;;28.90;99.90;;;;;;5020712;28;20205;-89
2021/06/25 01:07:33;;;;;;;1.60;0.63;;;28.30;99.90;;;;;;5020149;28;20240;-87
2021/06/25 01:10:08;;;;;;;154.70;11.77;;;28.20;99.90;;;;;;5020226;28;20224;-87
2021/06/25 01:12:43;;;;;;;7.93;0.97;;;28.40;99.90;;;;;;5022246;28;20240;-88
2021/06/25 01:15:15;;;;;;;3.27;0.80;;;29.50;99.90;;;;;;5035137;28;20219;-87
2021/06/25 01:17:47;;;;;;;6.53;1.30;;;30.50;99.90;;;;;;5019876;28;20217;-87
2021/06/25 01:20:25;;;;;;;3.07;0.90;;;31.10;99.90;;;;;;5018130;28;20305;-88
2021/06/25 01:23:00;;;;;;;2.77;0.93;;;31.00;99.90;;;;;;5019997;28;20252;-88
2021/06/25 01:25:33;;;;;;;3.20;0.88;;;31.30;99.90;;;;;;5019291;28;20218;-88
2021/06/25 01:28:08;;;;;;;2.33;0.88;;;32.10;99.90;;;;;;5019591;28;20236;-89
2021/06/25 01:30:41;;;;;;;2.85;0.80;;;32.50;99.90;;;;;;4999563;28;20210;-88
2021/06/25 01:33:14;;;;;;;1.02;0.82;;;32.80;99.90;;;;;;5000047;28;20225;-89
2021/06/25 01:35:46;;;;;;;3.33;0.77;;;32.90;99.90;;;;;;5006843;28;20209;-88
2021/06/25 01:38:18;;;;;;;1.02;0.82;;;32.80;99.90;;;;;;5006437;28;20247;-87
2021/06/25 01:40:49;;;;;;;0.85;0.80;;;32.80;99.90;;;;;;5016868;28;20269;-89
2021/06/25 01:43:22;;;;;;;1.02;0.68;;;32.40;99.90;;;;;;4998146;28;20238;-89
2021/06/25 01:45:53;;;;;;;1.65;0.98;;;31.70;99.90;;;;;;4997306;28;20207;-89
2021/06/25 01:48:25;;;;;;;3.75;1.00;;;32.10;99.90;;;;;;4997407;28;20248;-89
2021/06/25 01:50:56;;;;;;;2.83;0.80;;;32.40;99.90;;;;;;5015369;28;20292;-89
2021/06/25 01:53:29;;;;;;;2.65;1.00;;;32.80;99.90;;;;;;5016416;28;20256;-89
2021/06/25 01:56:01;;;;;;;1.38;0.68;;;32.80;99.90;;;;;;5026623;28;20256;-88
2021/06/25 01:58:33;;;;;;;2.88;1.10;;;32.50;99.90;;;;;;5034460;28;20286;-89
2021/06/25 02:01:10;;;;;;;2.60;0.82;;;32.60;99.90;;;;;;5036025;28;20189;-86
2021/06/25 02:03:43;;;;;;;1.08;0.90;;;32.90;99.90;;;;;;5017996;28;20327;-88
2021/06/25 02:06:17;;;;;;;1.17;0.65;;;33.10;99.90;;;;;;5017144;28;20233;-88
2021/06/25 02:08:53;;;;;;;1.90;0.80;;;32.40;99.90;;;;;;5013752;28;20214;-88
2021/06/25 02:11:24;;;;;;;0.77;0.60;;;32.80;99.90;;;;;;5002679;28;20673;-88
2021/06/25 02:13:55;;;;;;;1.38;0.60;;;32.90;99.90;;;;;;5016229;28;20209;-89
2021/06/25 02:16:30;;;;;;;2.80;1.00;;;33.00;99.50;;;;;;5016479;28;20205;-90
2021/06/25 02:19:00;;;;;;;3.30;0.88;;;33.30;99.90;;;;;;5016085;28;20264;-89
2021/06/25 02:21:32;;;;;;;2.80;1.10;;;33.20;99.90;;;;;;5015826;28;20242;-89
2021/06/25 02:24:06;;;;;;;4.40;1.30;;;33.40;99.90;;;;;;5016343;28;20245;-89
2021/06/25 02:26:37;;;;;;;1.60;1.13;;;33.20;99.20;;;;;;5048254;28;20256;-89
2021/06/25 02:29:08;;;;;;;2.63;0.70;;;32.70;99.40;;;;;;5016200;28;20206;-90
2021/06/25 02:31:39;;;;;;;1.45;0.60;;;32.80;98.90;;;;;;5011349;28;20209;-89
2021/06/25 02:34:11;;;;;;;1.73;0.80;;;32.40;98.90;;;;;;5015607;28;20264;-90
2021/06/25 02:36:42;;;;;;;2.25;1.00;;;32.30;99.30;;;;;;5022212;28;20210;-89
2021/06/25 02:39:16;;;;;;;2.78;0.90;;;31.60;99.90;;;;;;5002546;28;20213;-90
2021/06/25 02:41:48;;;;;;;2.75;1.05;;;30.70;99.90;;;;;;5019427;28;20205;-91
2021/06/25 02:44:19;;;;;;;1.30;0.70;;;29.70;99.90;;;;;;5015356;28;20287;-90
2021/06/25 02:46:51;;;;;;;1.60;0.70;;;28.60;99.90;;;;;;5022720;28;20256;-89
2021/06/25 02:49:22;;;;;;;3.00;0.77;;;28.10;99.90;;;;;;5015177;28;20237;-89
2021/06/25 02:51:53;;;;;;;2.37;0.70;;;27.80;99.90;;;;;;5014029;28;20225;-90
2021/06/25 02:54:26;;;;;;;3.27;0.80;;;27.50;99.90;;;;;;5015632;28;20241;-89
2021/06/25 02:56:58;;;;;;;2.07;0.90;;;27.10;99.90;;;;;;5015861;28;20214;-89
2021/06/25 02:59:29;;;;;;;1.93;1.00;;;26.90;99.90;;;;;;5016075;28;20607;-90
2021/06/25 03:02:00;;;;;;;2.30;0.80;;;26.60;99.90;;;;;;5014699;28;20202;-89
2021/06/25 03:04:31;;;;;;;2.27;0.80;;;26.50;99.90;;;;;;5029955;28;20679;-89
2021/06/25 03:07:03;;;;;;;3.60;0.87;;;26.40;99.90;;;;;;4996597;28;20246;-89
2021/06/25 03:09:36;;;;;;;4.03;1.00;;;26.20;99.90;;;;;;5016107;28;20773;-88
2021/06/25 03:12:07;;;;;;;3.73;1.07;;;26.00;99.90;;;;;;5014317;28;20624;-89
2021/06/25 03:14:39;;;;;;;3.43;1.00;;;25.80;99.90;;;;;;5015279;28;20248;-89
2021/06/25 03:17:10;;;;;;;1.77;1.00;;;25.70;99.90;;;;;;5015730;28;20209;-89
2021/06/25 03:19:41;;;;;;;2.77;0.73;;;25.50;99.90;;;;;;5015784;28;20218;-89
2021/06/25 03:22:12;;;;;;;1.33;0.97;;;25.40;99.90;;;;;;5016621;28;20216;-89
2021/06/25 03:24:45;;;;;;;3.40;0.60;;;25.20;99.90;;;;;;5016448;28;20768;-88
2021/06/25 03:27:17;;;;;;;3.13;0.70;;;25.20;99.90;;;;;;5015828;28;20205;-89
2021/06/25 03:29:48;;;;;;;1.33;0.90;;;25.00;99.90;;;;;;5017390;28;20213;-89
2021/06/25 03:32:19;;;;;;;1.63;0.90;;;24.90;99.90;;;;;;5019065;28;20202;-89
2021/06/25 03:34:51;;;;;;;3.20;0.90;;;24.80;99.90;;;;;;5026883;28;20245;-86
2021/06/25 03:37:22;;;;;;;8.27;1.10;;;24.70;99.90;;;;;;5035937;28;20190;-90
2021/06/25 03:39:55;;;;;;;2.67;1.43;;;24.60;99.90;;;;;;5032169;28;20250;-90
2021/06/25 03:42:26;;;;;;;3.33;1.10;;;24.50;99.90;;;;;;5022748;28;20202;-89
2021/06/25 03:44:57;;;;;;;2.97;1.33;;;24.40;99.90;;;;;;5020999;28;20278;-89
2021/06/25 03:47:28;;;;;;;2.93;1.40;;;24.30;99.90;;;;;;5021516;28;20245;-89
2021/06/25 03:49:59;;;;;;;2.60;1.43;;;24.20;99.90;;;;;;5015521;28;20260;-89
2021/06/25 03:52:30;;;;;;;3.33;1.50;;;24.10;99.90;;;;;;5010193;28;20210;-89
2021/06/25 03:55:03;;;;;;;3.87;1.40;;;24.00;99.90;;;;;;5015739;28;20206;-89
2021/06/25 03:57:35;;;;;;;3.17;1.23;;;24.00;99.90;;;;;;5015357;28;20217;-89
2021/06/25 04:00:09;;;;;;;1.83;0.90;;;23.90;99.90;;;;;;5012672;28;20232;-90
2021/06/25 04:02:41;;;;;;;5.33;1.07;;;23.80;99.90;;;;;;5013876;28;20295;-90
2021/06/25 04:05:12;;;;;;;2.80;1.33;;;23.70;99.90;;;;;;5012585;28;20233;-89
2021/06/25 04:07:45;;;;;;;2.90;1.23;;;23.60;99.90;;;;;;5010205;28;20718;-89
2021/06/25 04:10:18;;;;;;;2.53;1.10;;;23.60;99.90;;;;;;5004724;28;20214;-90
2021/06/25 04:12:49;;;;;;;5.40;1.40;;;23.50;99.90;;;;;;5013699;28;20256;-90
2021/06/25 04:15:20;;;;;;;3.43;1.40;;;23.40;99.90;;;;;;5014131;28;20658;-90
2021/06/25 04:17:50;;;;;;;2.33;1.10;;;23.30;99.90;;;;;;5013841;28;20236;-88
2021/06/25 04:20:21;;;;;;;4.17;1.37;;;23.30;99.90;;;;;;5013752;28;20205;-90
2021/06/25 04:22:52;;;;;;;4.80;1.13;;;23.30;99.90;;;;;;5013390;28;20225;-90
2021/06/25 04:25:25;;;;;;;7.63;1.27;;;23.20;99.90;;;;;;5014748;28;20586;-89
2021/06/25 04:27:56;;;;;;;2.13;1.10;;;23.10;99.90;;;;;;5032934;28;20228;-91
2021/06/25 04:30:27;;;;;;;2.80;1.10;;;23.00;99.90;;;;;;5033541;28;20209;-90
2021/06/25 04:33:00;;;;;;;2.27;1.10;;;23.00;99.90;;;;;;5032336;28;20651;-89
2021/06/25 04:35:32;;;;;;;3.43;1.27;;;22.90;99.90;;;;;;5015641;28;20206;-89
2021/06/25 04:38:03;;;;;;;5.10;1.10;;;22.80;99.90;;;;;;5003413;28;20236;-89
2021/06/25 04:40:38;;;;;;;3.67;1.23;;;22.80;99.90;;;;;;5006754;28;20245;-89
2021/06/25 04:43:10;;;;;;;9.53;1.40;;;22.60;99.90;;;;;;5017302;28;20280;-89
2021/06/25 04:45:42;;;;;;;2.70;1.10;;;22.50;99.90;;;;;;5032879;28;20576;-89
2021/06/25 04:48:15;;;;;;;4.87;2.10;;;22.40;99.90;;;;;;5033461;28;20213;-88
2021/06/25 04:50:46;;;;;;;3.03;1.20;;;22.40;99.90;;;;;;5016278;28;20663;-88
2021/06/25 04:53:17;;;;;;;9.20;1.47;;;22.30;99.90;;;;;;5012581;28;20248;-88
2021/06/25 04:55:50;;;;;;;1.57;0.90;;;22.20;99.90;;;;;;5013038;28;20292;-87
2021/06/25 04:58:22;;;;;;;1.60;1.17;;;22.10;99.90;;;;;;5013360;28;20230;-89
2021/06/25 05:00:53;;;;;;;2.83;1.23;;;22.00;99.90;;;;;;5010830;28;20209;-88
2021/06/25 05:03:24;;;;;;;3.70;1.40;;;21.90;99.90;;;;;;5001668;28;20198;-88
2021/06/25 05:05:54;;;;;;;2.63;1.60;;;21.90;99.90;;;;;;5011733;28;20237;-88
2021/06/25 05:08:25;;;;;;;5.53;1.90;;;21.80;99.90;;;;;;5012111;28;20229;-88
2021/06/25 05:10:59;;;;;;;2.67;1.10;;;21.80;99.90;;;;;;5011747;28;20296;-87
2021/06/25 05:13:30;;;;;;;4.40;1.20;;;21.80;99.90;;;;;;5015817;28;20236;-88
2021/06/25 05:16:01;;;;;;;4.93;1.40;;;21.70;99.90;;;;;;4669487;28;9999846;-88
2021/06/25 05:18:31;;;;;;;2.13;1.30;;;21.70;99.90;;;;;;5020054;28;20232;-87
2021/06/25 05:21:22;;;;;;;7.07;1.43;;;21.60;99.90;;;;;;5035108;28;20715;-88
2021/06/25 05:23:53;;;;;;;2.30;1.40;;;21.60;99.90;;;;;;5035963;28;20221;-88
2021/06/25 05:26:25;;;;;;;2.60;1.17;;;21.50;99.90;;;;;;5035811;28;20267;-87
2021/06/25 05:28:57;;;;;;;6.10;1.40;;;21.40;99.90;;;;;;5040367;28;20709;-87
2021/06/25 05:31:28;;;;;;;4.90;1.30;;;21.40;99.90;;;;;;5035337;28;20676;-87
2021/06/25 05:33:59;;;;;;;1.87;1.20;;;21.40;99.90;;;;;;5015495;28;20285;-87
2021/06/25 05:36:29;;;;;;;2.13;1.30;;;21.40;99.90;;;;;;5016175;28;20252;-87
2021/06/25 05:39:00;;;;;;;2.87;1.77;;;21.40;99.90;;;;;;5015739;28;20677;-87
2021/06/25 05:41:33;;;;;;;2.37;1.20;;;21.30;99.90;;;;;;5015238;28;20284;-88
2021/06/25 05:44:03;;;;;;;2.73;1.20;;;21.40;99.90;;;;;;5013822;28;20277;-88
2021/06/25 05:46:34;;;;;;;2.50;1.27;;;21.30;99.90;;;;;;4997652;28;20269;-89
2021/06/25 05:49:05;;;;;;;2.87;1.20;;;21.30;99.90;;;;;;5018217;28;20281;-88
2021/06/25 05:51:36;;;;;;;5.67;1.27;;;21.30;99.90;;;;;;5034594;28;20271;-89
2021/06/25 05:54:08;;;;;;;3.77;1.10;;;21.20;99.90;;;;;;5037533;28;20208;-89
2021/06/25 05:56:41;;;;;;;3.67;1.23;;;21.20;99.90;;;;;;5036610;28;20216;-89
2021/06/25 05:59:12;;;;;;;2.40;1.27;;;21.10;99.90;;;;;;5036115;28;20213;-89
2021/06/25 06:01:43;;;;;;;1.87;1.07;;;21.10;99.90;;;;;;5034599;28;20680;-88
2021/06/25 06:04:14;;;;;;;3.90;1.40;;;21.10;99.90;;;;;;5021791;28;20227;-88
2021/06/25 06:06:45;;;;;;;1.87;1.30;;;21.00;99.90;;;;;;5015621;28;20690;-88
2021/06/25 06:09:16;;;;;;;3.67;1.33;;;20.90;99.90;;;;;;5016156;28;20217;-89
2021/06/25 06:11:49;;;;;;;5.13;1.43;;;20.80;99.90;;;;;;5006147;28;20249;-87
2021/06/25 06:14:20;;;;;;;1.63;1.20;;;20.70;99.90;;;;;;4996466;28;20218;-88
2021/06/25 06:16:52;;;;;;;2.77;1.30;;;20.60;99.90;;;;;;4996004;28;20592;-88
2021/06/25 06:19:23;;;;;;;2.23;1.20;;;20.60;99.90;;;;;;4996226;28;20224;-88
2021/06/25 06:33:07;;;;;;;7.70;1.50;;;20.50;99.90;;;;;;4995962;28;20346;-88
2021/06/25 06:35:39;;;;;;;5.53;1.50;;;20.50;99.90;;;;;;4996152;28;20238;-88
2021/06/25 06:38:10;;;;;;;2.87;1.23;;;20.40;99.90;;;;;;4996027;28;20285;-87
2021/06/25 06:40:41;;;;;;;2.27;1.57;;;20.40;99.90;;;;;;5006167;28;20249;-87
2021/06/25 06:43:14;;;;;;;3.63;1.60;;;20.40;99.90;;;;;;4995959;28;20210;-88
2021/06/25 06:45:44;;;;;;;3.93;1.33;;;20.40;99.90;;;;;;5002338;28;20234;-88
2021/06/25 06:48:16;;;;;;;5.90;1.57;;;20.30;99.90;;;;;;5014843;28;20221;-88
2021/06/25 06:50:47;;;;;;;3.87;1.50;;;20.30;99.90;;;;;;5014929;28;20687;-88
2021/06/25 06:53:18;;;;;;;2.10;1.10;;;20.20;99.90;;;;;;5015535;28;20260;-88
2021/06/25 06:55:49;;;;;;;4.10;1.30;;;20.20;99.90;;;;;;5015997;28;20777;-87
2021/06/25 06:58:22;;;;;;;2.33;1.30;;;20.20;99.90;;;;;;5028154;28;20193;-89
2021/06/25 07:00:53;;;;;;;4.13;1.30;;;20.20;99.90;;;;;;5033158;28;20201;-89
2021/06/25 07:03:28;;;;;;;3.23;1.20;;;20.20;99.90;;;;;;5035723;28;20205;-88
2021/06/25 07:05:59;;;;;;;5.20;1.30;;;20.20;99.90;;;;;;5019893;28;20236;-88
2021/06/25 07:08:31;;;;;;;4.37;1.50;;;20.10;99.90;;;;;;5016438;28;20217;-89
2021/06/25 07:11:02;;;;;;;3.40;1.20;;;20.10;99.90;;;;;;5015101;28;20206;-87
2021/06/25 07:13:36;;;;;;;4.37;1.30;;;20.10;99.90;;;;;;5025331;28;20662;-89
2021/06/25 07:16:08;;;;;;;1.80;1.13;;;20.00;99.90;;;;;;4995332;28;20210;-89
2021/06/25 07:18:39;;;;;;;3.67;1.60;;;20.00;99.90;;;;;;4995702;28;20210;-89
2021/06/25 07:21:10;;;;;;;2.27;1.03;;;19.90;99.90;;;;;;4995028;28;20225;-89
2021/06/25 07:23:42;;;;;;;3.30;1.20;;;19.90;99.90;;;;;;4995090;28;20233;-88
2021/06/25 07:26:12;;;;;;;5.27;1.13;;;19.80;99.90;;;;;;4995135;28;20320;-88
2021/06/25 07:28:46;;;;;;;3.03;1.00;;;19.80;99.90;;;;;;4994764;28;20214;-88
2021/06/25 07:31:17;;;;;;;3.87;1.23;;;19.70;99.90;;;;;;4993956;28;20214;-88
2021/06/25 07:33:47;;;;;;;3.50;1.47;;;19.70;99.90;;;;;;4993952;28;20221;-88
2021/06/25 07:36:19;;;;;;;3.40;1.20;;;19.70;99.90;;;;;;4994699;28;20217;-88
2021/06/25 07:38:50;;;;;;;4.07;1.30;;;19.70;99.90;;;;;;4994888;28;20277;-88
2021/06/25 07:41:21;;;;;;;5.27;1.50;;;19.60;99.90;;;;;;4994183;28;20652;-88
2021/06/25 07:43:54;;;;;;;5.73;1.37;;;19.60;99.90;;;;;;4993738;28;20293;-88
2021/06/25 07:46:25;;;;;;;3.33;1.63;;;19.50;99.90;;;;;;4995387;28;20257;-88
2021/06/25 07:48:57;;;;;;;3.47;1.27;;;19.50;99.90;;;;;;4993719;28;20272;-89
2021/06/25 07:51:27;;;;;;;4.27;1.10;;;19.40;99.90;;;;;;5002305;28;20312;-88
2021/06/25 07:53:58;;;;;;;3.10;1.20;;;19.40;99.90;;;;;;5014521;28;20237;-89
2021/06/25 07:56:29;;;;;;;4.73;1.40;;;19.40;99.90;;;;;;5015609;28;20249;-89
2021/06/25 07:59:02;;;;;;;4.90;1.63;;;19.30;99.90;;;;;;5015636;28;20236;-89
2021/06/25 08:01:34;;;;;;;3.00;1.40;;;19.30;99.90;;;;;;5014622;28;20737;-89
2021/06/25 08:04:05;;;;;;;3.37;1.40;;;19.30;99.90;;;;;;5014707;28;20228;-89
2021/06/25 08:06:36;;;;;;;1.80;1.10;;;19.20;99.90;;;;;;5015047;28;20268;-89
2021/06/25 08:09:08;;;;;;;2.07;1.20;;;19.20;99.90;;;;;;5014281;28;20633;-88
2021/06/25 08:11:39;;;;;;;2.73;1.27;;;19.20;99.90;;;;;;5013794;28;20250;-89
2021/06/25 08:14:11;;;;;;;2.50;1.13;;;19.20;99.90;;;;;;5014688;28;20217;-89
2021/06/25 08:16:42;;;;;;;3.23;1.40;;;19.10;99.90;;;;;;5014547;28;20217;-89
2021/06/25 08:19:13;;;;;;;2.53;1.50;;;19.10;99.90;;;;;;5014277;28;20209;-89
2021/06/25 08:21:45;;;;;;;3.43;1.30;;;19.10;99.90;;;;;;5013767;28;20214;-89
2021/06/25 08:24:19;;;;;;;4.93;1.30;;;19.10;99.90;;;;;;5015886;28;20217;-88
2021/06/25 08:26:55;;;;;;;3.47;1.23;;;19.10;99.90;;;;;;5015686;28;20240;-88
2021/06/25 08:29:27;;;;;;;3.80;1.30;;;19.00;99.90;;;;;;5014900;28;20213;-88
2021/06/25 08:31:58;;;;;;;2.57;1.20;;;18.90;99.90;;;;;;5014746;28;20214;-88
2021/06/25 08:34:29;;;;;;;4.03;1.23;;;18.90;99.90;;;;;;5014754;28;20237;-87
2021/06/25 08:37:00;;;;;;;2.93;1.17;;;18.90;99.90;;;;;;5015072;28;20573;-90
2021/06/25 08:39:31;;;;;;;2.70;1.07;;;18.80;99.90;;;;;;5014979;28;20214;-87
2021/06/25 08:42:04;;;;;;;1.43;1.03;;;18.80;99.90;;;;;;5014862;28;20281;-88
2021/06/25 08:44:38;;;;;;;5.07;1.50;;;18.80;99.90;;;;;;5014965;28;20233;-89
2021/06/25 08:47:10;;;;;;;2.07;1.20;;;18.70;99.90;;;;;;5020007;28;20256;-88
2021/06/25 08:49:47;;;;;;;3.20;1.37;;;18.70;99.90;;;;;;5021653;28;20232;-87
2021/06/25 08:52:19;;;;;;;2.83;1.30;;;18.70;99.90;;;;;;5022974;28;20209;-87
2021/06/25 08:54:50;;;;;;;3.60;1.33;;;18.70;99.90;;;;;;5023050;28;20235;-88
2021/06/25 08:57:21;;;;;;;4.13;1.47;;;18.60;99.90;;;;;;5027790;28;20221;-87
2021/06/25 08:59:53;;;;;;;3.53;1.40;;;18.70;99.90;;;;;;5037089;28;20228;-88
2021/06/25 09:02:24;;;;;;;3.83;1.20;;;18.60;99.90;;;;;;5038434;28;20228;-88
2021/06/25 09:04:56;;;;;;;2.87;1.30;;;18.60;99.90;;;;;;5036673;28;20224;-88
2021/06/25 09:07:41;;;;;;;3.30;1.30;;;18.50;99.90;;;;;;5024498;28;20303;-88
2021/06/25 09:10:17;;;;;;;3.30;1.50;;;18.50;99.90;;;;;;5020388;28;20224;-88
2021/06/25 09:13:02;;;;;;;5.57;1.70;;;18.40;99.90;;;;;;5021673;28;20542;-88
2021/06/25 09:15:36;;;;;;;3.83;1.50;;;18.40;99.90;;;;;;5018430;28;20808;-88
2021/06/25 09:18:09;;;;;;;3.20;1.50;;;18.40;99.90;;;;;;5017747;28;20315;-87
2021/06/25 09:20:43;;;;;;;5.23;1.40;;;18.40;99.90;;;;;;5017145;28;20280;-87
2021/06/25 09:23:15;;;;;;;3.57;1.60;;;18.30;99.90;;;;;;5017677;28;20217;-88
2021/06/25 09:25:58;;;;;;;5.00;1.30;;;18.30;99.90;;;;;;5027362;28;20225;-88
2021/06/25 09:28:38;;;;;;;4.57;1.20;;;18.30;99.90;;;;;;5037314;28;20225;-88
2021/06/25 09:31:17;;;;;;;3.07;1.30;;;18.30;99.90;;;;;;5038345;28;20197;-87
2021/06/25 09:33:49;;;;;;;3.27;1.37;;;18.30;99.90;;;;;;5019610;28;20190;-87
2021/06/25 09:36:24;;;;;;;4.93;1.50;;;18.20;99.90;;;;;;5002333;28;20697;-88
2021/06/25 09:39:00;;;;;;;3.30;1.67;;;18.20;99.90;;;;;;4997942;28;20292;-87
2021/06/25 09:41:32;;;;;;;3.70;1.13;;;18.20;99.90;;;;;;5016198;28;20208;-88
2021/06/25 09:44:04;;;;;;;4.53;1.93;;;18.20;99.90;;;;;;5017826;28;20579;-87
2021/06/25 09:46:40;;;;;;;4.10;1.40;;;18.20;99.90;;;;;;5016871;28;20205;-88
2021/06/25 09:49:12;;;;;;;2.97;1.43;;;18.10;99.90;;;;;;5016712;28;20654;-88
2021/06/25 09:51:53;;;;;;;3.13;1.40;;;18.10;99.90;;;;;;5015935;28;20251;-88
2021/06/25 09:54:25;;;;;;;3.13;1.43;;;18.10;99.90;;;;;;5016751;28;20740;-88
2021/06/25 09:57:05;;;;;;;2.20;1.50;;;18.00;99.90;;;;;;5015579;28;20218;-88
2021/06/25 10:02:31;;;;;;;2.93;1.30;;;17.90;99.90;;;;;;5003421;28;20670;-88
2021/06/25 10:05:12;;;;;;;3.27;1.40;;;17.90;99.90;;;;;;5016687;28;20259;-89
2021/06/25 10:07:43;;;;;;;2.20;1.30;;;17.80;99.90;;;;;;5017070;28;20268;-89
2021/06/25 10:10:14;;;;;;;3.53;1.50;;;17.80;99.90;;;;;;5015410;28;20347;-88
2021/06/25 10:12:46;;;;;;;2.77;1.40;;;17.70;99.90;;;;;;5016121;28;20732;-89
2021/06/25 10:15:17;;;;;;;1.93;1.10;;;17.70;99.90;;;;;;5016291;28;20271;-89
2021/06/25 10:17:50;;;;;;;3.47;1.30;;;17.80;99.90;;;;;;5015773;28;20213;-89
2021/06/25 10:20:23;;;;;;;3.40;1.40;;;17.80;99.90;;;;;;5015296;28;20651;-89
2021/06/25 10:22:56;;;;;;;4.37;1.23;;;17.80;99.90;;;;;;5015782;28;20287;-89
2021/06/25 10:25:31;;;;;;;3.50;1.60;;;17.70;99.90;;;;;;5016360;28;20236;-88
2021/06/25 10:28:03;;;;;;;3.73;1.50;;;17.60;99.90;;;;;;5015839;28;20320;-89
2021/06/25 10:30:34;;;;;;;3.87;1.57;;;17.60;99.90;;;;;;5014848;28;20237;-87
2021/06/25 10:33:08;;;;;;;3.43;1.20;;;17.60;99.90;;;;;;5016716;28;20316;-88
2021/06/25 10:35:45;;;;;;;2.20;1.23;;;17.60;99.90;;;;;;5015668;28;20209;-88
2021/06/25 10:38:18;;;;;;;2.93;1.30;;;17.60;99.90;;;;;;5015680;28;20260;-88
2021/06/25 10:40:57;;;;;;;4.23;1.50;;;17.70;99.90;;;;;;5014747;28;20648;-88
2021/06/25 10:43:50;;;;;;;3.47;1.63;;;17.70;99.90;;;;;;5015827;28;20228;-88
2021/06/25 10:46:38;;;;;;;2.63;1.20;;;17.70;99.90;;;;;;5011862;28;20554;-88
2021/06/25 10:49:14;;;;;;;4.00;1.30;;;17.70;99.90;;;;;;5015361;28;20789;-88
2021/06/25 10:51:47;;;;;;;2.70;1.50;;;17.70;99.90;;;;;;5014704;28;20296;-88
2021/06/25 10:54:19;;;;;;;4.80;1.43;;;17.80;99.90;;;;;;5015143;28;20972;-88
2021/06/25 10:57:09;;;;;;;3.43;1.50;;;17.80;99.90;;;;;;5015084;28;20218;-88
2021/06/25 10:59:46;;;;;;;3.10;1.33;;;17.70;99.90;;;;;;5019834;28;20623;-89
2021/06/25 11:02:17;;;;;;;3.83;1.60;;;17.80;99.90;;;;;;5015118;28;20281;-89
2021/06/25 11:04:51;;;;;;;4.37;1.57;;;17.80;99.90;;;;;;5015222;28;20202;-89
2021/06/25 11:07:42;;;;;;;1.87;1.20;;;17.80;99.90;;;;;;5015495;28;20639;-89
2021/06/25 11:10:22;;;;;;;2.93;1.30;;;17.70;99.90;;;;;;5014501;28;20217;-88
2021/06/25 11:13:21;;;;;;;3.17;1.30;;;17.70;99.90;;;;;;5015256;28;20596;-89
2021/06/25 11:15:59;;;;;;;3.30;1.40;;;17.70;99.90;;;;;;5015444;28;20220;-89
2021/06/25 11:18:33;;;;;;;4.30;1.70;;;17.70;99.90;;;;;;5015479;28;20266;-90
2021/06/25 11:21:08;;;;;;;2.50;1.40;;;17.70;99.90;;;;;;5014355;28;20210;-88
2021/06/25 11:23:43;;;;;;;2.37;1.50;;;17.70;99.90;;;;;;5015606;28;20225;-89
2021/06/25 11:26:26;;;;;;;2.37;1.20;;;17.70;99.90;;;;;;5014679;28;20236;-88
2021/06/25 11:28:57;;;;;;;3.07;1.50;;;17.60;99.90;;;;;;5020836;28;20260;-88
2021/06/25 11:31:29;;;;;;;5.13;1.60;;;17.60;99.90;;;;;;5017914;28;20614;-88
2021/06/25 11:34:03;;;;;;;3.10;1.37;;;17.60;99.90;;;;;;5018729;28;20317;-88
2021/06/25 11:36:54;;;;;;;4.33;1.73;;;17.60;99.90;;;;;;5015394;28;20209;-88
2021/06/25 11:39:31;;;;;;;3.37;1.50;;;17.50;99.90;;;;;;4999345;28;20309;-88
2021/06/25 11:42:06;;;;;;;1.73;1.27;;;17.50;99.90;;;;;;5013843;28;20210;-88
2021/06/25 11:44:40;;;;;;;3.07;1.23;;;17.50;99.90;;;;;;5014542;28;20216;-88
2021/06/25 11:47:14;;;;;;;3.53;1.70;;;17.50;99.90;;;;;;5014781;28;20206;-88
2021/06/25 11:49:47;;;;;;;4.97;1.47;;;17.40;99.90;;;;;;5014459;28;20228;-88
2021/06/25 11:52:23;;;;;;;2.70;1.30;;;17.40;99.90;;;;;;5014540;28;20233;-88
2021/06/25 11:54:55;;;;;;;1.60;1.20;;;17.40;99.90;;;;;;5014434;28;20236;-88
2021/06/25 11:57:28;;;;;;;3.93;1.33;;;17.40;99.90;;;;;;5014818;28;20218;-88
2021/06/25 12:00:07;;;;;;;5.77;1.70;;;17.40;99.90;;;;;;5034433;28;20220;-89
2021/06/25 12:02:43;;;;;;;2.67;1.47;;;17.40;99.90;;;;;;5035989;28;20216;-89
2021/06/25 12:05:16;;;;;;;2.73;1.60;;;17.40;99.90;;;;;;5030767;28;20232;-90
2021/06/25 12:08:02;;;;;;;3.03;1.40;;;17.40;99.90;;;;;;5015086;28;20301;-88
2021/06/25 12:10:39;;;;;;;6.63;1.57;;;17.40;99.90;;;;;;5015749;28;20216;-89
2021/06/25 12:13:11;;;;;;;5.83;1.50;;;17.40;99.90;;;;;;5017131;28;20210;-89
2021/06/25 12:15:46;;;;;;;3.07;1.50;;;17.40;99.90;;;;;;5016581;28;20224;-89
2021/06/25 12:18:21;;;;;;;5.70;1.43;;;17.40;99.90;;;;;;5015998;28;20242;-89
2021/06/25 12:21:04;;;;;;;4.47;1.50;;;17.40;99.90;;;;;;5015296;28;20259;-89
2021/06/25 12:23:37;;;;;;;4.30;1.73;;;17.50;99.90;;;;;;5020451;28;20222;-90
2021/06/25 12:26:15;;;;;;;2.80;1.40;;;17.50;99.90;;;;;;5020099;28;20205;-89
2021/06/25 12:28:46;;;;;;;4.40;1.53;;;17.40;99.90;;;;;;5015619;28;20407;-88
2021/06/25 12:31:21;;;;;;;2.27;1.50;;;17.40;99.90;;;;;;5014162;28;20206;-90
2021/06/25 12:34:04;;;;;;;3.07;1.60;;;17.50;99.90;;;;;;5014394;28;20205;-89
2021/06/25 12:36:35;;;;;;;5.10;1.37;;;17.50;99.90;;;;;;5014792;28;20213;-88
2021/06/25 12:39:10;;;;;;;3.27;1.50;;;17.50;99.90;;;;;;5014006;28;20301;-89
2021/06/25 12:41:45;;;;;;;4.20;1.50;;;17.50;99.90;;;;;;5013297;28;20204;-89
2021/06/25 12:44:22;;;;;;;2.77;1.53;;;17.50;99.90;;;;;;5013315;28;20209;-89
2021/06/25 12:47:04;;;;;;;2.70;1.40;;;17.50;99.90;;;;;;5014144;28;20217;-88
2021/06/25 12:49:36;;;;;;;3.87;1.50;;;17.60;99.90;;;;;;5013918;28;20648;-89
2021/06/25 12:52:23;;;;;;;5.60;1.60;;;17.60;99.90;;;;;;5012608;28;20212;-88
2021/06/25 12:54:56;;;;;;;2.03;1.27;;;17.60;99.90;;;;;;5013790;28;20224;-88
2021/06/25 12:57:27;;;;;;;3.57;1.67;;;17.60;99.90;;;;;;5013425;28;20241;-89
2021/06/25 12:59:58;;;;;;;2.50;1.47;;;17.70;99.90;;;;;;5012954;28;20225;-90
2021/06/25 13:02:30;;;;;;;4.00;1.50;;;17.70;99.90;;;;;;5014159;28;20232;-90
2021/06/25 13:05:01;;;;;;;2.43;1.43;;;17.70;99.90;;;;;;5013890;28;20623;-89
2021/06/25 13:07:32;;;;;;;2.57;1.30;;;17.70;99.90;;;;;;5013857;28;20267;-89
2021/06/25 13:10:13;;;;;;;3.50;1.30;;;17.80;99.90;;;;;;5013273;28;20241;-89
2021/06/25 13:12:44;;;;;;;5.43;1.53;;;17.80;99.90;;;;;;5017701;28;20244;-89
2021/06/25 13:15:15;;;;;;;3.87;1.40;;;17.80;99.90;;;;;;5015855;28;20284;-89
2021/06/25 13:17:48;;;;;;;3.80;1.40;;;17.80;99.90;;;;;;5013685;28;20255;-89
2021/06/25 13:20:55;;;;;;;3.33;1.67;;;17.90;99.90;;;;;;5013151;28;20245;-90
2021/06/25 13:23:27;;;;;;;4.07;1.37;;;17.80;99.90;;;;;;5013446;28;20280;-89
2021/06/25 13:26:04;;;;;;;4.77;1.63;;;17.80;99.90;;;;;;5013559;28;20599;-89
2021/06/25 13:28:35;;;;;;;3.83;1.63;;;17.80;99.90;;;;;;5013881;28;20570;-89
2021/06/25 13:31:06;;;;;;;2.73;1.57;;;17.70;99.90;;;;;;5012489;28;20213;-89